Time;durP1;ratioP1;P1;durP2;ratioP2;P2;SDS_P1;SDS_P2;PMS_P1;PMS_P2;Temp;Humidity;BMP_temperature;BMP_pressure;BME280_temperature;BME280_humidity;BME280_pressure;Samples;Min_cycle;Max_cycle;Signal;HPM_P1;HPM_P2
2020/12/12 00:01:51;;;;;;;8.30;5.15;;;;;;;3.34;61.41;98728.50;8034714;28;20044;-63
2020/12/12 00:05:42;;;;;;;8.55;5.38;;;;;;;3.37;61.79;98727.44;8002712;28;20029;-63
2020/12/12 00:09:32;;;;;;;6.18;4.65;;;;;;;3.33;61.61;98722.47;7985149;28;20049;-62
2020/12/12 00:13:23;;;;;;;6.93;5.00;;;;;;;3.34;61.46;98729.34;8004015;28;20043;-63
2020/12/12 00:17:13;;;;;;;6.63;5.28;;;;;;;3.34;61.38;98728.50;8008589;28;20044;-63
2020/12/12 00:21:04;;;;;;;7.35;5.35;;;;;;;3.33;61.75;98737.22;8030261;28;20044;-63
2020/12/12 00:24:55;;;;;;;6.97;4.70;;;;;;;3.34;61.62;98736.28;8041333;28;20040;-63
2020/12/12 00:28:46;;;;;;;7.72;5.10;;;;;;;3.35;61.49;98743.13;8039039;28;20447;-63
2020/12/12 00:32:36;;;;;;;6.22;4.88;;;;;;;3.33;61.53;98739.81;8040282;28;20665;-63
2020/12/12 00:36:27;;;;;;;12.23;4.47;;;;;;;3.33;62.00;98738.03;8039166;28;20035;-63
2020/12/12 00:40:17;;;;;;;6.10;4.20;;;;;;;3.37;61.68;98740.41;8041004;28;20042;-64
2020/12/12 00:44:09;;;;;;;8.23;4.70;;;;;;;3.35;61.99;98740.53;8022980;28;20564;-63
2020/12/12 00:47:59;;;;;;;8.00;4.40;;;;;;;3.31;61.67;98737.34;8038948;28;20048;-63
2020/12/12 00:51:51;;;;;;;5.95;3.90;;;;;;;3.30;62.04;98743.47;8041353;28;20094;-63
2020/12/12 00:55:42;;;;;;;7.40;4.80;;;;;;;3.30;61.63;98745.22;8040334;28;20032;-63
2020/12/12 00:59:33;;;;;;;7.22;5.00;;;;;;;3.27;61.63;98751.44;8038837;28;20043;-64
2020/12/12 01:03:23;;;;;;;7.30;4.57;;;;;;;3.22;61.71;98750.09;8038545;28;20051;-63
2020/12/12 01:07:14;;;;;;;5.47;4.35;;;;;;;3.23;61.69;98749.16;8010528;28;20062;-63
2020/12/12 01:11:06;;;;;;;7.05;4.95;;;;;;;3.23;61.63;98760.38;8006377;28;20041;-63
2020/12/12 01:14:56;;;;;;;6.00;4.28;;;;;;;3.24;61.94;98764.59;7990772;28;20043;-63
2020/12/12 01:18:47;;;;;;;6.85;4.22;;;;;;;3.24;61.96;98761.19;8009469;28;20036;-63
2020/12/12 01:22:37;;;;;;;6.53;3.90;;;;;;;3.28;62.02;98762.66;8039475;28;20043;-63
2020/12/12 01:26:28;;;;;;;4.88;3.67;;;;;;;3.31;61.91;98759.88;8037803;28;20493;-63
2020/12/12 01:30:19;;;;;;;6.15;3.63;;;;;;;3.33;62.11;98769.19;8038603;28;20038;-63
2020/12/12 01:34:09;;;;;;;5.38;3.63;;;;;;;3.35;62.08;98774.28;8039530;28;20090;-63
2020/12/12 01:38:00;;;;;;;5.82;3.22;;;;;;;3.40;62.04;98773.97;8037927;28;20064;-63
2020/12/12 01:41:54;;;;;;;5.60;4.10;;;;;;;3.41;62.01;98770.41;8039436;28;20047;-62
2020/12/12 01:45:44;;;;;;;6.18;4.32;;;;;;;3.42;61.96;98772.06;8038603;28;20078;-62
2020/12/12 01:49:35;;;;;;;5.85;3.88;;;;;;;3.45;61.67;98777.88;8037040;28;20040;-62
2020/12/12 01:53:26;;;;;;;6.35;4.38;;;;;;;3.48;61.99;98787.25;8020798;28;20029;-62
2020/12/12 01:57:21;;;;;;;7.40;5.15;;;;;;;3.48;62.19;98782.88;8037629;28;20039;-62
2020/12/12 02:01:13;;;;;;;5.70;4.15;;;;;;;3.52;62.12;98780.91;8036271;28;20123;-62
2020/12/12 02:05:04;;;;;;;5.43;3.85;;;;;;;3.55;61.88;98789.28;8026430;28;20041;-63
2020/12/12 02:08:54;;;;;;;5.45;3.60;;;;;;;3.58;61.99;98791.66;7988154;28;20029;-61
2020/12/12 02:12:45;;;;;;;5.30;3.42;;;;;;;3.61;61.90;98796.63;8004716;28;20094;-62
2020/12/12 02:16:56;;;;;;;6.55;3.95;;;;;;;3.62;62.02;98800.91;8003933;28;20037;-62
2020/12/12 02:20:54;;;;;;;5.00;3.85;;;;;;;3.64;62.07;98790.41;8024185;28;20610;-62
2020/12/12 02:24:44;;;;;;;6.10;4.32;;;;;;;3.62;62.38;98792.28;8036741;28;20036;-62
2020/12/12 02:28:52;;;;;;;4.55;3.25;;;;;;;3.66;62.39;98794.56;8035917;28;20388;-63
2020/12/12 02:32:43;;;;;;;5.00;3.30;;;;;;;3.66;62.03;98791.97;8036006;28;20133;-63
2020/12/12 02:36:37;;;;;;;6.53;4.10;;;;;;;3.69;61.90;98790.94;8037477;28;20032;-63
2020/12/12 02:40:28;;;;;;;5.07;3.47;;;;;;;3.69;62.06;98793.53;8036456;28;20041;-62
2020/12/12 02:44:18;;;;;;;5.20;3.42;;;;;;;3.70;62.20;98790.81;8036006;28;20040;-62
2020/12/12 02:48:09;;;;;;;6.38;4.05;;;;;;;3.70;62.18;98790.81;8034724;28;20077;-63
2020/12/12 02:52:00;;;;;;;4.65;3.38;;;;;;;3.70;62.08;98793.41;8036116;28;20032;-62
2020/12/12 02:55:51;;;;;;;5.15;3.42;;;;;;;3.73;62.34;98797.56;8035399;28;20039;-63
2020/12/12 02:59:41;;;;;;;5.28;3.72;;;;;;;3.76;62.10;98802.53;8035419;28;20036;-63
2020/12/12 03:03:32;;;;;;;5.18;3.78;;;;;;;3.78;62.22;98804.06;8024684;28;20054;-62
2020/12/12 03:07:23;;;;;;;5.10;3.40;;;;;;;3.80;62.26;98810.00;8003150;28;20051;-63
2020/12/12 03:11:13;;;;;;;5.18;3.10;;;;;;;3.80;61.89;98810.00;8005456;28;20041;-62
2020/12/12 03:15:08;;;;;;;6.70;3.50;;;;;;;3.84;62.37;98818.41;8003693;28;20032;-62
2020/12/12 03:18:59;;;;;;;4.55;3.40;;;;;;;3.86;62.01;98818.31;7990139;28;20044;-62
2020/12/12 03:22:49;;;;;;;5.25;3.15;;;;;;;3.89;62.22;98823.28;8034847;28;20089;-62
2020/12/12 03:26:40;;;;;;;4.78;3.63;;;;;;;3.91;62.18;98822.22;8034096;28;20055;-63
2020/12/12 03:30:31;;;;;;;5.30;2.95;;;;;;;3.94;62.13;98822.03;8033477;28;20055;-63
2020/12/12 03:34:22;;;;;;;4.95;3.63;;;;;;;3.95;62.14;98828.84;8034895;28;20420;-63
2020/12/12 03:38:12;;;;;;;4.57;3.05;;;;;;;3.95;62.05;98831.47;8035634;28;20477;-63
2020/12/12 03:42:03;;;;;;;3.80;2.97;;;;;;;3.96;62.05;98835.72;8018433;28;20044;-63
2020/12/12 03:45:53;;;;;;;5.85;3.70;;;;;;;3.96;62.22;98838.31;8017469;28;20052;-63
2020/12/12 03:49:44;;;;;;;4.57;3.58;;;;;;;3.96;62.10;98840.09;8021736;28;20802;-61
2020/12/12 03:53:35;;;;;;;5.03;3.42;;;;;;;3.97;62.35;98842.59;8042647;28;20037;-63
2020/12/12 03:57:25;;;;;;;4.03;3.08;;;;;;;3.97;62.16;98846.94;8041034;28;20028;-63
2020/12/12 04:01:16;;;;;;;5.68;3.85;;;;;;;3.96;61.97;98846.13;8041099;28;20052;-64
2020/12/12 04:05:07;;;;;;;9.35;3.65;;;;;;;3.94;62.45;98848.00;8029114;28;20037;-63
2020/12/12 04:08:57;;;;;;;6.90;4.07;;;;;;;3.96;62.33;98853.06;8008218;28;20033;-63
2020/12/12 04:12:48;;;;;;;5.80;3.97;;;;;;;3.94;62.40;98857.56;8008750;28;20070;-62
2020/12/12 04:16:38;;;;;;;6.07;4.00;;;;;;;3.93;62.32;98856.72;8007936;28;20045;-63
2020/12/12 04:20:29;;;;;;;6.07;4.22;;;;;;;3.94;61.97;98865.34;8026748;28;20040;-62
2020/12/12 04:24:20;;;;;;;5.75;4.05;;;;;;;3.92;62.33;98864.63;7981151;28;20041;-63
2020/12/12 04:28:10;;;;;;;9.00;4.13;;;;;;;3.94;62.54;98867.97;7976941;28;20041;-64
2020/12/12 04:32:01;;;;;;;5.53;3.83;;;;;;;3.91;62.21;98874.19;8002781;28;20524;-64
2020/12/12 04:35:52;;;;;;;6.65;4.32;;;;;;;3.93;62.30;98879.28;8009782;28;20661;-63
2020/12/12 04:39:42;;;;;;;7.10;3.88;;;;;;;3.94;62.41;98876.59;8041807;28;20086;-63
2020/12/12 04:43:33;;;;;;;5.18;4.07;;;;;;;3.96;62.69;98881.66;8007892;28;20084;-63
2020/12/12 04:47:25;;;;;;;7.63;4.57;;;;;;;3.96;62.45;98872.09;8023004;28;20135;-64
2020/12/12 04:51:16;;;;;;;5.85;4.40;;;;;;;3.97;62.49;98880.72;8040361;28;20519;-63
2020/12/12 04:55:07;;;;;;;5.35;3.88;;;;;;;3.96;62.48;98879.88;8008966;28;20025;-63
2020/12/12 04:58:58;;;;;;;6.75;4.65;;;;;;;3.97;62.62;98883.31;8031611;28;20119;-63
2020/12/12 05:02:49;;;;;;;7.38;4.32;;;;;;;3.97;62.41;98880.72;7989602;28;20041;-64
2020/12/12 05:06:39;;;;;;;5.93;3.88;;;;;;;3.99;62.46;98886.63;8040387;28;20052;-63
2020/12/12 05:10:41;;;;;;;6.05;4.45;;;;;;;3.99;62.45;98890.06;8008463;28;20045;-64
2020/12/12 05:14:31;;;;;;;4.88;3.60;;;;;;;3.99;62.58;98886.63;8007452;28;20044;-63
2020/12/12 05:18:22;;;;;;;6.50;4.28;;;;;;;3.99;62.49;98887.47;8006526;28;20041;-61
2020/12/12 05:22:13;;;;;;;5.65;3.65;;;;;;;4.00;62.56;98890.88;8008109;28;20037;-63
2020/12/12 05:26:04;;;;;;;6.38;4.68;;;;;;;4.00;62.55;98894.31;8006709;28;20033;-63
2020/12/12 05:29:58;;;;;;;8.65;4.55;;;;;;;4.02;62.76;98907.22;8039805;28;20093;-63
2020/12/12 05:33:48;;;;;;;5.72;4.28;;;;;;;4.04;62.40;98900.97;8039652;28;20703;-63
2020/12/12 05:37:39;;;;;;;9.27;5.28;;;;;;;4.06;62.69;98901.69;8007854;28;20832;-63
2020/12/12 05:41:30;;;;;;;7.60;5.03;;;;;;;4.06;62.63;98904.31;8039960;28;20068;-63
2020/12/12 05:45:21;;;;;;;7.05;5.10;;;;;;;4.07;62.49;98905.13;8005471;28;20036;-63
2020/12/12 05:49:12;;;;;;;6.63;4.47;;;;;;;4.09;62.87;98911.03;8005721;28;20104;-63
2020/12/12 05:53:05;;;;;;;6.95;4.63;;;;;;;4.09;62.84;98916.25;8039297;28;20040;-63
2020/12/12 05:56:58;;;;;;;6.32;4.95;;;;;;;4.11;62.86;98924.78;8039268;28;20036;-63
2020/12/12 06:00:49;;;;;;;7.60;5.40;;;;;;;4.12;62.82;98922.03;8021671;28;20037;-63
2020/12/12 06:04:48;;;;;;;7.47;5.43;;;;;;;4.13;63.01;98926.31;7988551;28;20086;-63
2020/12/12 06:08:39;;;;;;;8.32;5.80;;;;;;;4.14;62.86;98929.75;8005134;28;20033;-62
2020/12/12 06:12:31;;;;;;;7.40;5.20;;;;;;;4.15;62.71;98936.63;8004598;28;20050;-63
2020/12/12 06:16:25;;;;;;;8.68;5.55;;;;;;;4.14;62.95;98930.56;8004114;28;20584;-62
2020/12/12 06:20:16;;;;;;;9.68;5.47;;;;;;;4.16;62.86;98946.88;8020543;28;20447;-62
2020/12/12 06:24:09;;;;;;;7.50;5.72;;;;;;;4.17;62.98;98952.91;8019820;28;20758;-62
2020/12/12 06:28:03;;;;;;;8.35;5.78;;;;;;;4.18;62.81;98958.00;8019651;28;20040;-62
2020/12/12 06:31:54;;;;;;;8.40;5.85;;;;;;;4.19;63.23;98958.84;8036156;28;20052;-63
2020/12/12 06:35:45;;;;;;;8.57;5.68;;;;;;;4.20;62.83;98968.28;8036022;28;20028;-63
2020/12/12 06:39:45;;;;;;;10.00;6.00;;;;;;;4.17;62.91;98969.34;8037205;28;20446;-63
2020/12/12 06:43:36;;;;;;;7.78;5.60;;;;;;;4.21;62.85;98980.34;8036014;28;20032;-63
2020/12/12 06:47:38;;;;;;;8.60;6.05;;;;;;;4.22;62.95;98984.63;8010457;28;20733;-63
2020/12/12 06:51:35;;;;;;;7.88;5.60;;;;;;;4.24;62.96;98990.53;7987907;28;20036;-63
2020/12/12 06:55:26;;;;;;;9.10;6.28;;;;;;;4.24;62.88;98986.16;8003902;28;20025;-62
2020/12/12 06:59:26;;;;;;;10.48;6.25;;;;;;;4.28;62.98;98994.56;8003461;28;20037;-62
2020/12/12 07:03:21;;;;;;;7.43;5.00;;;;;;;4.30;62.92;99005.72;8003394;28;20525;-63
2020/12/12 07:07:16;;;;;;;11.02;5.57;;;;;;;4.32;63.06;99005.59;8003503;28;20057;-62
2020/12/12 07:11:07;;;;;;;8.05;4.82;;;;;;;4.35;62.94;99013.19;8003446;28;20071;-62
2020/12/12 07:14:58;;;;;;;7.75;5.03;;;;;;;4.38;62.90;99010.38;8003766;28;20021;-62
2020/12/12 07:18:49;;;;;;;8.27;5.28;;;;;;;4.38;62.73;99015.56;8007112;28;20036;-63
2020/12/12 07:22:40;;;;;;;7.82;5.70;;;;;;;4.40;62.98;99026.69;8034590;28;20567;-63
2020/12/12 07:26:31;;;;;;;6.75;4.63;;;;;;;4.43;63.03;99029.91;8036308;28;20032;-63
2020/12/12 07:30:22;;;;;;;8.00;5.22;;;;;;;4.44;63.16;99034.16;8011579;28;20124;-63
2020/12/12 07:34:20;;;;;;;8.38;5.85;;;;;;;4.46;63.04;99042.69;8000258;28;20021;-63
2020/12/12 07:38:10;;;;;;;8.27;5.70;;;;;;;4.49;62.85;99054.63;8000051;28;20060;-63
2020/12/12 07:42:03;;;;;;;9.30;5.78;;;;;;;4.49;62.88;99052.88;8000792;28;20390;-63
2020/12/12 07:46:08;;;;;;;7.33;4.97;;;;;;;4.49;63.01;99057.25;8000010;28;20417;-63
2020/12/12 07:50:04;;;;;;;8.88;5.95;;;;;;;4.50;62.89;99070.16;8001304;28;20040;-64
2020/12/12 07:53:55;;;;;;;8.05;4.93;;;;;;;4.50;62.90;99067.53;8001057;28;20033;-64
2020/12/12 07:57:49;;;;;;;6.55;4.93;;;;;;;4.50;62.80;99070.16;8001596;28;20044;-62
2020/12/12 08:01:40;;;;;;;8.85;5.30;;;;;;;4.51;62.98;99083.97;8002438;28;20045;-63
2020/12/12 08:05:30;;;;;;;7.72;5.22;;;;;;;4.52;63.03;99090.84;8002685;28;20041;-63
2020/12/12 08:09:23;;;;;;;8.13;5.07;;;;;;;4.52;63.07;99094.28;8003174;28;20413;-63
2020/12/12 08:13:23;;;;;;;8.05;5.50;;;;;;;4.53;63.03;99101.13;8002441;28;20037;-62
2020/12/12 08:17:13;;;;;;;8.15;5.45;;;;;;;4.54;62.92;99109.75;8001527;28;20049;-63
2020/12/12 08:21:11;;;;;;;7.55;5.20;;;;;;;4.56;63.06;99111.34;8040623;28;20059;-63
2020/12/12 08:25:06;;;;;;;8.88;5.53;;;;;;;4.55;62.94;99119.25;8035337;28;20039;-64
2020/12/12 08:29:00;;;;;;;7.75;5.07;;;;;;;4.54;63.17;99123.59;8003721;28;20037;-63
2020/12/12 08:32:51;;;;;;;8.70;5.35;;;;;;;4.55;63.10;99134.84;8000872;28;20045;-63
2020/12/12 08:36:42;;;;;;;7.80;5.30;;;;;;;4.54;62.90;99138.38;8007874;28;20025;-63
2020/12/12 08:40:34;;;;;;;6.80;5.35;;;;;;;4.58;63.27;99151.06;7992070;28;20041;-63
2020/12/12 08:44:24;;;;;;;8.05;5.57;;;;;;;4.61;63.12;99160.41;8007993;28;20095;-63
2020/12/12 08:48:15;;;;;;;8.55;5.53;;;;;;;4.64;63.34;99168.88;7988878;28;20045;-63
2020/12/12 08:52:06;;;;;;;7.25;5.13;;;;;;;4.65;63.25;99162.69;7990962;28;20072;-63
2020/12/12 08:56:00;;;;;;;8.35;5.40;;;;;;;4.67;63.16;99173.84;8008701;28;20037;-64
2020/12/12 09:00:00;;;;;;;7.10;4.72;;;;;;;4.71;63.13;99177.06;7986721;28;20036;-64
2020/12/12 09:03:59;;;;;;;6.35;4.35;;;;;;;4.74;63.15;99185.50;7996383;28;20064;-63
2020/12/12 09:07:49;;;;;;;;;;;;;;;4.71;63.20;99188.31;7996148;28;20041;-63
2020/12/12 09:11:42;;;;;;;6.75;4.82;;;;;;;4.77;63.26;99197.47;7994230;28;20007;-63
2020/12/12 09:15:33;;;;;;;5.63;4.28;;;;;;;4.84;63.28;99203.06;7995936;28;20112;-63
2020/12/12 09:19:24;;;;;;;7.40;4.70;;;;;;;4.89;63.06;99214.00;7997142;28;20040;-63
2020/12/12 09:23:15;;;;;;;7.18;4.68;;;;;;;4.94;63.11;99215.34;8000119;28;20060;-63
2020/12/12 09:27:05;;;;;;;8.20;5.63;;;;;;;4.97;63.29;99215.16;7996614;28;20037;-64
2020/12/12 09:30:56;;;;;;;7.82;5.22;;;;;;;4.99;63.02;99222.84;7993871;28;20114;-64
2020/12/12 09:34:46;;;;;;;7.30;5.38;;;;;;;5.00;63.10;99227.09;8000258;28;20083;-64
2020/12/12 09:38:37;;;;;;;7.50;5.40;;;;;;;5.01;63.14;99234.81;7997900;28;20029;-63
2020/12/12 09:42:28;;;;;;;8.85;5.32;;;;;;;5.02;63.19;99239.06;7998445;28;20044;-64
2020/12/12 09:46:19;;;;;;;6.65;4.50;;;;;;;5.07;63.48;99239.59;7981237;28;20052;-63
2020/12/12 09:50:10;;;;;;;8.98;5.90;;;;;;;5.09;63.47;99249.91;7997688;28;20055;-63
2020/12/12 09:54:00;;;;;;;6.80;4.70;;;;;;;5.08;63.28;99251.66;7996522;28;20029;-63
2020/12/12 09:57:51;;;;;;;7.57;5.65;;;;;;;5.11;63.33;99250.63;7975355;28;20237;-63
2020/12/12 10:01:42;;;;;;;9.68;6.20;;;;;;;5.12;63.35;99257.50;7993635;28;20037;-63
2020/12/12 10:05:33;;;;;;;10.00;6.10;;;;;;;5.14;63.45;99263.44;7978412;28;20099;-63
2020/12/12 10:09:24;;;;;;;11.82;6.70;;;;;;;5.14;63.06;99266.88;7992764;28;20798;-63
2020/12/12 10:13:14;;;;;;;10.10;5.88;;;;;;;5.16;63.34;99262.41;7995348;28;20144;-63
2020/12/12 10:17:05;;;;;;;8.73;5.47;;;;;;;5.18;63.42;99265.75;7992720;28;20528;-63
2020/12/12 10:20:56;;;;;;;8.38;5.50;;;;;;;5.19;63.46;99262.19;7994984;28;20044;-63
2020/12/12 10:24:47;;;;;;;7.28;5.68;;;;;;;5.24;63.43;99268.84;7995234;28;20065;-63
2020/12/12 10:28:37;;;;;;;8.25;6.03;;;;;;;5.26;63.41;99277.41;7991368;28;20043;-63
2020/12/12 10:32:28;;;;;;;9.43;5.53;;;;;;;5.28;63.58;99276.34;7962824;28;20071;-63
2020/12/12 10:36:19;;;;;;;9.38;5.70;;;;;;;5.30;63.59;99271.88;7978554;28;20456;-63
2020/12/12 10:44:07;;;;;;;7.80;5.80;;;;;;;5.39;63.74;99286.88;7976935;28;20048;-63
2020/12/12 10:47:58;;;;;;;6.72;4.80;;;;;;;5.45;63.73;99298.63;7993183;28;20135;-63
2020/12/12 10:51:53;;;;;;;8.32;5.03;;;;;;;5.50;63.45;99301.75;7998027;28;20040;-63
2020/12/12 10:55:43;;;;;;;9.02;5.63;;;;;;;5.55;63.61;99310.91;7992881;28;20021;-63
2020/12/12 10:59:34;;;;;;;7.03;4.30;;;;;;;5.60;64.03;99303.56;7973266;28;20452;-63
2020/12/12 11:03:25;;;;;;;6.43;4.78;;;;;;;5.68;63.63;99305.69;7974771;28;20045;-63
2020/12/12 11:07:15;;;;;;;7.55;4.97;;;;;;;5.71;63.62;99300.25;7993825;28;20146;-63
2020/12/12 11:11:06;;;;;;;8.48;5.15;;;;;;;5.76;63.56;99303.34;7993926;28;20504;-63
2020/12/12 11:15:09;;;;;;;7.93;5.45;;;;;;;5.82;63.47;99304.69;7997312;28;20033;-63
2020/12/12 11:18:59;;;;;;;6.50;4.65;;;;;;;5.87;63.86;99311.25;7992437;28;20049;-63
2020/12/12 11:22:50;;;;;;;10.35;6.05;;;;;;;5.92;63.73;99310.91;7975193;28;20094;-63
2020/12/12 11:26:41;;;;;;;8.98;5.32;;;;;;;5.95;63.79;99308.06;7991761;28;20596;-63
2020/12/12 11:30:31;;;;;;;12.90;5.93;;;;;;;6.01;63.95;99320.69;7989587;28;20067;-63
2020/12/12 11:38:55;;;;;;;7.93;5.63;;;;;;;6.06;63.74;99322.00;7993300;28;20045;-63
2020/12/12 11:46:28;;;;;;;8.60;6.18;;;;;;;6.13;63.60;99313.75;7994580;28;20068;-63
2020/12/12 11:50:19;;;;;;;9.55;4.82;;;;;;;6.17;63.65;99326.47;7993387;28;20043;-63
2020/12/12 11:54:10;;;;;;;8.40;5.40;;;;;;;6.21;63.86;99324.47;7995862;28;20045;-62
2020/12/12 11:58:00;;;;;;;8.95;5.28;;;;;;;6.23;63.58;99331.22;7990909;28;20037;-62
2020/12/12 12:01:51;;;;;;;6.97;5.10;;;;;;;6.27;63.77;99332.66;7989865;28;20057;-63
2020/12/12 12:05:48;;;;;;;8.88;4.93;;;;;;;6.32;63.95;99340.16;7992389;28;20115;-61
2020/12/12 12:09:42;;;;;;;7.90;5.57;;;;;;;6.38;63.89;99351.00;7993464;28;20037;-63
2020/12/12 12:13:34;;;;;;;8.13;5.50;;;;;;;6.41;63.73;99342.09;7967023;28;20055;-61
2020/12/12 12:17:24;;;;;;;7.47;4.28;;;;;;;6.46;63.73;99343.44;7994362;28;20048;-63
2020/12/12 12:21:15;;;;;;;7.03;4.93;;;;;;;6.52;63.85;99352.56;7981538;28;20997;-63
2020/12/12 12:25:06;;;;;;;10.45;5.95;;;;;;;6.55;63.99;99347.97;7997285;28;20700;-63
2020/12/12 12:28:56;;;;;;;6.65;3.97;;;;;;;6.59;64.03;99354.63;7994141;28;20130;-63
2020/12/12 12:32:47;;;;;;;7.65;4.63;;;;;;;6.64;63.95;99359.50;7998511;28;20052;-63
2020/12/12 12:36:38;;;;;;;10.82;4.82;;;;;;;6.65;63.91;99369.00;7996859;28;20063;-63
2020/12/12 12:40:29;;;;;;;6.25;3.65;;;;;;;6.66;63.83;99370.69;7998111;28;20714;-63
2020/12/12 12:44:19;;;;;;;7.47;4.65;;;;;;;6.68;63.78;99379.22;7998731;28;20548;-63
2020/12/12 12:48:10;;;;;;;6.78;4.88;;;;;;;6.70;63.88;99379.09;7978588;28;20053;-63
2020/12/12 12:52:01;;;;;;;7.18;4.70;;;;;;;6.71;63.65;99386.84;7996966;28;20071;-63
2020/12/12 12:55:51;;;;;;;7.75;4.38;;;;;;;6.70;63.89;99384.31;7998941;28;20037;-63
2020/12/12 12:59:42;;;;;;;7.47;4.82;;;;;;;6.72;63.58;99382.47;7993564;28;20039;-63
2020/12/12 13:03:33;;;;;;;8.50;4.50;;;;;;;6.70;63.59;99379.09;7996860;28;20041;-63
2020/12/12 13:07:23;;;;;;;8.75;4.50;;;;;;;6.71;63.74;99391.22;7999099;28;20134;-63
2020/12/12 13:11:14;;;;;;;7.13;4.60;;;;;;;6.69;63.84;99387.88;7995837;28;20045;-63
2020/12/12 13:15:06;;;;;;;7.40;4.80;;;;;;;6.71;63.70;99396.44;7995839;28;20033;-62
2020/12/12 13:19:48;;;;;;;4.20;3.40;;;;;;;6.71;63.92;99407.72;7995523;28;20063;-63
2020/12/12 13:23:07;;;;;;;5.10;3.90;;;;;;;6.73;63.68;99399.78;7989366;28;20055;-63
2020/12/12 13:27:00;;;;;;;5.63;3.75;;;;;;;6.75;63.94;99409.19;7998870;28;20402;-64
2020/12/12 13:31:08;;;;;;;5.03;3.33;;;;;;;6.77;63.48;99409.06;7994222;28;20120;-64
2020/12/12 13:34:59;;;;;;;8.13;4.85;;;;;;;6.79;63.56;99412.41;7996831;28;20024;-64
2020/12/12 13:38:49;;;;;;;6.53;4.28;;;;;;;6.80;63.64;99419.28;7994285;28;20043;-63
2020/12/12 13:42:40;;;;;;;8.95;4.55;;;;;;;6.81;63.78;99428.75;7977981;28;20043;-64
2020/12/12 13:46:31;;;;;;;6.30;4.22;;;;;;;6.80;63.30;99430.53;7994205;28;20033;-64
2020/12/12 13:50:21;;;;;;;6.22;3.92;;;;;;;6.83;63.75;99439.94;7994546;28;20059;-64
2020/12/12 13:54:12;;;;;;;5.60;3.45;;;;;;;6.84;63.52;99439.00;7998197;28;20036;-63
2020/12/12 13:58:04;;;;;;;6.50;4.18;;;;;;;6.79;63.55;99434.13;7979095;28;20041;-64
2020/12/12 14:01:54;;;;;;;11.82;4.05;;;;;;;6.84;63.69;99447.63;7994097;28;20032;-63
2020/12/12 14:05:51;;;;;;;5.28;3.03;;;;;;;6.86;63.51;99455.38;7997025;28;20041;-64
2020/12/12 14:26:20;;;;;;;7.07;3.83;;;;;;;6.85;63.42;99464.13;7995453;28;20534;-62
2020/12/12 14:30:10;;;;;;;7.75;3.88;;;;;;;6.83;63.44;99466.88;7991633;28;20064;-63
2020/12/12 14:34:01;;;;;;;11.93;4.22;;;;;;;6.85;63.64;99470.19;7997392;28;20037;-62
2020/12/12 14:37:52;;;;;;;6.05;3.80;;;;;;;6.86;63.50;99473.66;7995319;28;20044;-63
2020/12/12 14:41:43;;;;;;;7.65;3.22;;;;;;;6.86;63.66;99484.91;7995149;28;20958;-63
2020/12/12 14:45:34;;;;;;;8.73;3.85;;;;;;;6.88;63.82;99500.47;7993553;28;20041;-63
2020/12/12 14:49:25;;;;;;;4.93;3.47;;;;;;;6.88;63.62;99501.31;7974934;28;20033;-63
2020/12/12 14:53:18;;;;;;;5.88;3.35;;;;;;;6.89;63.75;99507.34;7996835;28;20045;-63
2020/12/12 14:57:09;;;;;;;3.20;2.47;;;;;;;6.87;63.42;99507.47;7990792;28;20029;-63
2020/12/12 15:01:01;;;;;;;5.75;3.90;;;;;;;6.87;63.43;99512.69;7957606;28;20123;-62
2020/12/12 15:04:51;;;;;;;6.65;3.15;;;;;;;6.88;63.32;99527.44;7993387;28;20041;-63
2020/12/12 15:08:42;;;;;;;4.70;3.28;;;;;;;6.87;63.80;99530.13;7975514;28;20059;-63
2020/12/12 15:12:35;;;;;;;5.63;3.92;;;;;;;6.89;63.43;99536.06;7993215;28;20777;-63
2020/12/12 15:16:26;;;;;;;6.70;4.28;;;;;;;6.85;63.20;99540.69;7974790;28;20585;-63
2020/12/12 15:20:16;;;;;;;7.85;2.85;;;;;;;6.86;63.41;99547.56;7992720;28;20029;-62
2020/12/12 15:24:07;;;;;;;5.97;3.80;;;;;;;6.84;63.45;99546.84;7990126;28;20043;-63
2020/12/12 15:27:58;;;;;;;5.72;3.42;;;;;;;6.84;63.37;99557.28;7992293;28;20041;-63
2020/12/12 15:31:49;;;;;;;4.25;2.80;;;;;;;6.84;63.37;99565.09;7989156;28;20047;-63
2020/12/12 15:35:40;;;;;;;9.95;3.88;;;;;;;6.84;63.30;99580.75;7992210;28;20024;-63
2020/12/12 15:39:31;;;;;;;7.95;4.50;;;;;;;6.83;63.44;99583.50;7990877;28;20045;-63
2020/12/12 15:43:21;;;;;;;7.57;3.05;;;;;;;6.83;63.48;99573.06;7991515;28;20723;-62
2020/12/12 15:47:13;;;;;;;10.85;4.60;;;;;;;6.85;63.45;99579.00;7998268;28;20608;-63
2020/12/12 15:51:03;;;;;;;9.13;5.93;;;;;;;6.83;63.30;99589.56;7999014;28;20112;-62
2020/12/12 15:54:54;;;;;;;12.77;6.85;;;;;;;6.84;63.19;99593.00;7982849;28;20046;-62
2020/12/12 15:58:45;;;;;;;10.00;5.38;;;;;;;6.84;63.19;99603.47;7997049;28;21809;-63
2020/12/12 16:02:36;;;;;;;7.72;3.90;;;;;;;6.83;63.63;99602.63;8000209;28;20049;-63
2020/12/12 16:06:27;;;;;;;8.63;4.30;;;;;;;6.85;63.65;99602.50;7998568;28;20045;-61
2020/12/12 16:10:18;;;;;;;7.85;3.65;;;;;;;6.85;63.40;99612.94;7995786;28;20055;-63
2020/12/12 16:14:09;;;;;;;8.27;4.22;;;;;;;6.84;63.46;99613.91;7980426;28;20028;-62
2020/12/12 16:17:59;;;;;;;10.45;4.32;;;;;;;6.85;63.60;99623.38;7995650;28;20113;-62
2020/12/12 16:21:51;;;;;;;13.13;4.97;;;;;;;6.85;63.59;99621.59;7996499;28;20049;-62
2020/12/12 16:25:41;;;;;;;8.30;4.70;;;;;;;6.87;63.48;99624.13;7997868;28;20132;-63
2020/12/12 16:29:32;;;;;;;8.93;4.20;;;;;;;6.87;63.35;99626.72;7993946;28;20033;-67
2020/12/12 16:33:23;;;;;;;8.88;4.65;;;;;;;6.87;63.38;99631.94;7982020;28;20500;-67
2020/12/12 16:37:14;;;;;;;10.90;5.00;;;;;;;6.85;63.17;99634.66;7981529;28;20524;-68
2020/12/12 16:41:05;;;;;;;10.90;6.13;;;;;;;6.86;63.55;99630.28;7999029;28;20036;-66
2020/12/12 16:44:55;;;;;;;12.38;5.13;;;;;;;6.87;63.25;99638.00;7981923;28;20037;-65
2020/12/12 16:48:46;;;;;;;9.45;4.78;;;;;;;6.89;63.29;99643.09;7996203;28;20136;-66
2020/12/12 16:52:41;;;;;;;10.10;5.75;;;;;;;6.88;63.45;99644.91;7998935;28;20041;-66
2020/12/12 16:56:52;;;;;;;11.80;5.72;;;;;;;6.88;63.34;99649.28;7982652;28;20758;-65
2020/12/12 17:00:43;;;;;;;14.68;5.68;;;;;;;6.89;63.44;99653.53;7995924;28;20044;-65
2020/12/12 17:04:33;;;;;;;9.43;4.55;;;;;;;6.90;63.29;99660.44;7983314;28;20065;-65
2020/12/12 17:08:24;;;;;;;14.07;5.65;;;;;;;6.89;63.20;99669.22;7998347;28;20043;-66
2020/12/12 17:12:15;;;;;;;9.95;5.22;;;;;;;6.90;63.17;99666.50;7996044;28;20807;-63
2020/12/12 17:16:05;;;;;;;11.73;5.65;;;;;;;6.89;63.53;99667.44;7996401;28;20037;-63
2020/12/12 17:19:56;;;;;;;13.15;5.80;;;;;;;6.90;63.36;99679.56;7996306;28;20036;-63
2020/12/12 17:23:46;;;;;;;10.88;4.90;;;;;;;6.91;63.26;99683.00;7996140;28;20029;-65
2020/12/12 17:27:38;;;;;;;13.88;6.38;;;;;;;6.92;63.31;99685.53;7993823;28;20658;-64
2020/12/12 17:31:34;;;;;;;15.18;5.68;;;;;;;6.91;63.37;99693.44;7992257;28;20065;-64
2020/12/12 17:35:25;;;;;;;16.05;6.90;;;;;;;6.92;63.46;99695.97;7994383;28;20041;-70
2020/12/12 17:39:17;;;;;;;8.35;4.93;;;;;;;6.94;63.39;99693.22;7977294;28;20055;-63
2020/12/12 17:43:08;;;;;;;14.40;6.45;;;;;;;6.93;63.22;99691.53;7993870;28;20416;-66
2020/12/12 17:46:59;;;;;;;15.20;7.13;;;;;;;6.93;63.22;99695.00;7976430;28;20052;-66
2020/12/12 17:50:50;;;;;;;26.50;9.30;;;;;;;6.94;63.46;99690.63;7977291;28;20045;-66
2020/12/12 17:54:41;;;;;;;19.60;8.85;;;;;;;6.94;63.25;99698.44;7996107;28;20089;-65
2020/12/12 17:58:32;;;;;;;19.90;8.32;;;;;;;6.92;63.21;99703.78;7991703;28;20044;-66
2020/12/12 18:02:22;;;;;;;17.80;7.90;;;;;;;6.92;63.34;99702.94;7976179;28;20468;-65
2020/12/12 18:06:13;;;;;;;21.75;9.13;;;;;;;6.91;63.48;99703.88;7995788;28;20044;-64
2020/12/12 18:10:09;;;;;;;19.45;9.20;;;;;;;6.93;63.49;99720.25;7979604;28;20047;-65
2020/12/12 18:14:00;;;;;;;18.63;7.65;;;;;;;6.92;63.31;99721.22;7995029;28;20063;-64
2020/12/12 18:17:50;;;;;;;15.15;8.10;;;;;;;6.91;63.40;99724.78;7994268;28;20076;-65
2020/12/12 18:21:41;;;;;;;14.80;7.25;;;;;;;6.94;63.62;99732.38;7995160;28;20296;-65
2020/12/12 18:25:32;;;;;;;11.98;6.57;;;;;;;6.94;63.17;99733.22;7997136;28;20062;-65
2020/12/12 18:29:22;;;;;;;17.02;8.55;;;;;;;6.92;63.54;99731.69;7993525;28;20772;-65
2020/12/12 18:33:13;;;;;;;20.35;7.97;;;;;;;6.92;63.50;99739.50;7995431;28;20033;-65
2020/12/12 18:37:03;;;;;;;16.67;8.52;;;;;;;6.93;63.41;99754.22;7998646;28;20021;-65
2020/12/12 18:40:54;;;;;;;22.08;10.48;;;;;;;6.93;63.65;99751.59;7996037;28;20114;-65
2020/12/12 18:44:45;;;;;;;20.13;9.18;;;;;;;6.93;63.07;99756.81;7991796;28;20457;-65
2020/12/12 18:48:35;;;;;;;22.45;10.30;;;;;;;6.92;63.15;99766.44;7991441;28;20033;-63
2020/12/12 18:52:26;;;;;;;18.02;8.40;;;;;;;6.92;63.21;99766.44;7994415;28;20052;-65